createdAt,value
2023-05-07T00:56:24.753Z,74.11
2023-05-07T00:58:53.588Z,74.14
2023-05-07T01:01:21.119Z,74.00
2023-05-07T01:03:48.700Z,73.95
2023-05-07T01:06:17.807Z,74.01
2023-05-07T01:08:46.434Z,74.19
2023-05-07T01:11:14.195Z,73.95
2023-05-07T01:13:42.499Z,74.00
2023-05-07T01:16:12.011Z,74.04
2023-05-07T01:18:39.477Z,73.99
2023-05-07T01:21:07.158Z,74.01
2023-05-07T01:23:36.571Z,73.84
2023-05-07T01:26:04.061Z,73.89
2023-05-07T01:28:31.554Z,73.94
2023-05-07T01:31:02.737Z,73.81
2023-05-07T01:33:32.434Z,73.99
2023-05-07T01:36:01.230Z,73.82
2023-05-07T01:38:29.236Z,73.95
2023-05-07T01:40:58.124Z,74.04
2023-05-07T01:43:25.661Z,74.01
2023-05-07T01:45:53.827Z,73.84
2023-05-07T01:48:21.468Z,73.85
2023-05-07T01:50:49.896Z,73.97
2023-05-07T01:53:17.430Z,73.89
2023-05-07T01:55:44.882Z,73.97
2023-05-07T01:58:13.706Z,74.00
2023-05-07T02:00:41.666Z,74.03
2023-05-07T02:03:09.218Z,74.03
2023-05-07T02:05:36.770Z,74.00
2023-05-07T02:08:04.316Z,73.95
2023-05-07T02:10:31.748Z,74.00
2023-05-07T02:12:59.163Z,74.04
2023-05-07T02:15:28.020Z,73.91
2023-05-07T02:18:02.276Z,74.07
2023-05-07T02:20:29.886Z,73.99
2023-05-07T02:22:57.436Z,73.85
2023-05-07T02:25:24.878Z,74.00
2023-05-07T02:27:52.460Z,74.14
2023-05-07T02:30:22.139Z,74.19
2023-05-07T02:32:50.989Z,74.20
2023-05-07T02:35:18.649Z,73.98
2023-05-07T02:37:46.110Z,73.99
2023-05-07T02:40:13.920Z,74.20
2023-05-07T02:42:41.485Z,73.98
2023-05-07T02:45:09.584Z,73.92
2023-05-07T02:47:37.030Z,74.08
2023-05-07T02:50:06.502Z,73.86
2023-05-07T02:52:33.945Z,73.88
2023-05-07T02:55:01.414Z,74.02
2023-05-07T02:57:28.910Z,74.08
2023-05-07T02:59:56.309Z,73.84
2023-05-07T03:02:23.720Z,73.87
2023-05-07T03:04:51.178Z,73.89
2023-05-07T03:07:19.989Z,73.81
2023-05-07T03:09:47.448Z,74.04
2023-05-07T03:12:14.924Z,73.88
2023-05-07T03:14:42.355Z,73.82
2023-05-07T03:17:09.785Z,73.83
2023-05-07T03:19:37.232Z,73.86
2023-05-07T03:22:04.654Z,73.92
2023-05-07T03:24:33.475Z,73.88
2023-05-07T03:27:02.083Z,73.91
2023-05-07T03:29:29.535Z,74.09
2023-05-07T03:31:57.050Z,73.96
2023-05-07T03:34:24.839Z,73.90
2023-05-07T03:36:52.279Z,73.99
2023-05-07T03:39:19.701Z,73.91
2023-05-07T03:41:48.459Z,73.84
2023-05-07T03:44:15.894Z,74.24
2023-05-07T03:46:43.371Z,73.90
2023-05-07T03:49:10.855Z,74.02
2023-05-07T03:51:38.317Z,73.94
2023-05-07T03:54:05.809Z,74.01
2023-05-07T03:56:33.287Z,74.06
2023-05-07T03:59:02.223Z,73.88
2023-05-07T04:01:29.705Z,74.05
2023-05-07T04:03:57.361Z,73.99
2023-05-07T04:06:25.250Z,73.92
2023-05-07T04:08:52.755Z,73.98
2023-05-07T04:11:21.301Z,73.99
2023-05-07T04:13:48.730Z,74.05
2023-05-07T04:16:17.623Z,74.08
2023-05-07T04:18:45.042Z,73.89
2023-05-07T04:21:16.081Z,73.87
2023-05-07T04:23:43.487Z,73.75
2023-05-07T04:26:11.105Z,73.82
2023-05-07T04:28:38.560Z,73.86
2023-05-07T04:31:06.449Z,73.73
2023-05-07T04:33:35.308Z,73.71
2023-05-07T04:36:04.722Z,73.76
2023-05-07T04:38:32.403Z,73.82
2023-05-07T04:41:00.319Z,73.86
2023-05-07T04:43:27.705Z,73.66
2023-05-07T04:45:55.219Z,73.61
2023-05-07T04:48:22.710Z,73.82
2023-05-07T04:50:52.116Z,73.76
2023-05-07T04:53:19.814Z,73.75
2023-05-07T04:55:47.342Z,73.71
2023-05-07T04:58:14.916Z,73.86
2023-05-07T05:00:43.385Z,73.88
2023-05-07T05:03:10.967Z,73.74
2023-05-07T05:05:38.997Z,73.97
2023-05-07T05:08:07.796Z,73.74
2023-05-07T05:10:35.261Z,74.01
2023-05-07T05:13:02.749Z,73.80
2023-05-07T05:15:31.755Z,73.78
2023-05-07T05:18:01.202Z,73.92
2023-05-07T05:20:28.660Z,73.89
2023-05-07T05:22:56.061Z,73.90
2023-05-07T05:25:24.898Z,73.89
2023-05-07T05:27:52.360Z,73.78
2023-05-07T05:30:21.221Z,73.80
2023-05-07T05:32:49.251Z,73.87
2023-05-07T05:35:16.807Z,73.85
2023-05-07T05:37:44.264Z,73.91
2023-05-07T05:40:12.389Z,73.90
2023-05-07T05:42:41.327Z,73.78
2023-05-07T05:45:09.509Z,73.91
2023-05-07T05:47:37.018Z,73.90
2023-05-07T05:50:04.610Z,73.89
2023-05-07T05:52:32.275Z,74.08
2023-05-07T05:54:59.763Z,73.86
2023-05-07T05:57:28.621Z,74.02
2023-05-07T05:59:57.890Z,74.09
2023-05-07T06:02:25.410Z,73.95
2023-05-07T06:04:52.975Z,73.84
2023-05-07T06:07:20.487Z,74.10
2023-05-07T06:09:47.953Z,73.95
2023-05-07T06:12:15.412Z,73.89
2023-05-07T06:14:44.594Z,73.85
2023-05-07T06:17:13.357Z,73.85
2023-05-07T06:19:40.865Z,74.06
2023-05-07T06:22:08.326Z,73.75
2023-05-07T06:24:35.774Z,73.87
2023-05-07T06:27:03.304Z,74.05
2023-05-07T06:29:32.444Z,73.85
2023-05-07T06:32:07.930Z,74.06
2023-05-07T06:34:36.751Z,74.11
2023-05-07T06:37:04.295Z,73.94
2023-05-07T06:39:31.759Z,73.89
2023-05-07T06:41:59.701Z,73.93
2023-05-07T06:44:27.191Z,73.98
2023-05-07T06:46:54.661Z,73.92
2023-05-07T06:49:22.048Z,73.97
2023-05-07T06:51:50.844Z,73.95
2023-05-07T06:54:18.347Z,74.08
2023-05-07T06:56:45.838Z,74.13
2023-05-07T06:59:13.284Z,74.06
2023-05-07T07:01:41.433Z,74.05
2023-05-07T07:04:08.989Z,73.97
2023-05-07T07:06:36.560Z,73.79
2023-05-07T07:09:05.406Z,74.01
2023-05-07T07:11:32.832Z,74.00
2023-05-07T07:14:00.572Z,74.09
2023-05-07T07:16:28.236Z,74.04
2023-05-07T07:18:55.768Z,74.08
2023-05-07T07:21:23.215Z,74.17
2023-05-07T07:23:50.657Z,74.12
2023-05-07T07:26:19.769Z,74.17
2023-05-07T07:28:48.034Z,73.96
2023-05-07T07:31:16.189Z,74.17
2023-05-07T07:33:43.745Z,74.03
2023-05-07T07:36:11.407Z,73.95
2023-05-07T07:38:38.844Z,74.03
2023-05-07T07:41:06.281Z,74.08
2023-05-07T07:43:35.113Z,74.16
2023-05-07T07:46:02.545Z,74.28
2023-05-07T07:48:29.999Z,74.08
2023-05-07T07:50:57.453Z,74.12
2023-05-07T07:53:24.861Z,73.85
2023-05-07T07:55:52.865Z,73.98
2023-05-07T07:58:21.510Z,73.96
2023-05-07T08:00:50.366Z,73.88
2023-05-07T08:03:17.929Z,73.97
2023-05-07T08:05:45.492Z,73.71
2023-05-07T08:08:12.930Z,73.59
2023-05-07T08:10:40.371Z,73.66
2023-05-07T08:13:08.065Z,73.64
2023-05-07T08:15:36.386Z,73.62
2023-05-07T08:18:05.263Z,73.78
2023-05-07T08:20:32.937Z,73.67
2023-05-07T08:23:00.435Z,73.69
2023-05-07T08:25:27.921Z,73.69
2023-05-07T08:27:55.415Z,73.69
2023-05-07T08:30:23.094Z,73.89
2023-05-07T08:32:50.547Z,73.74
2023-05-07T08:35:19.405Z,73.87
2023-05-07T08:37:46.860Z,73.71
2023-05-07T08:40:14.818Z,73.75
2023-05-07T08:42:43.297Z,73.81
2023-05-07T08:45:11.402Z,73.68
2023-05-07T08:47:42.586Z,73.72
2023-05-07T08:50:10.619Z,73.78
2023-05-07T08:52:39.587Z,73.67
2023-05-07T08:55:08.547Z,73.81
2023-05-07T08:57:36.353Z,73.81
2023-05-07T09:00:03.870Z,73.75
2023-05-07T09:02:31.542Z,73.74
2023-05-07T09:04:58.990Z,73.91
2023-05-07T09:07:27.302Z,73.76
2023-05-07T09:09:58.069Z,73.66
2023-05-07T09:12:25.741Z,73.80
2023-05-07T09:14:53.387Z,73.63
2023-05-07T09:17:20.963Z,73.78
2023-05-07T09:19:48.426Z,73.76
2023-05-07T09:22:15.905Z,73.56
2023-05-07T09:24:49.085Z,73.70
2023-05-07T09:27:17.902Z,73.79
2023-05-07T09:29:45.559Z,73.84
2023-05-07T09:32:13.171Z,73.67
2023-05-07T09:34:40.621Z,73.68
2023-05-07T09:37:08.638Z,73.92
2023-05-07T09:39:42.686Z,73.90
2023-05-07T09:42:10.345Z,73.82
2023-05-07T09:44:39.352Z,73.68
2023-05-07T09:47:07.794Z,73.75
2023-05-07T09:49:36.885Z,73.69
2023-05-07T09:52:06.957Z,73.84
2023-05-07T09:54:34.873Z,73.64
2023-05-07T09:57:04.195Z,73.68
2023-05-07T09:59:33.093Z,73.70
2023-05-07T10:02:05.097Z,73.79
2023-05-07T10:04:33.192Z,73.72
2023-05-07T10:07:01.019Z,73.74
2023-05-07T10:09:28.505Z,73.76
2023-05-07T10:11:56.459Z,73.79
2023-05-07T10:14:23.906Z,73.87
2023-05-07T10:16:51.624Z,73.83
2023-05-07T10:19:21.477Z,73.80
2023-05-07T10:21:53.278Z,73.96
2023-05-07T10:24:22.540Z,73.82
2023-05-07T10:26:51.829Z,73.84
2023-05-07T10:29:24.794Z,73.84
2023-05-07T10:32:01.011Z,73.77
2023-05-07T10:34:31.851Z,73.95
2023-05-07T10:36:59.501Z,73.82
2023-05-07T10:39:26.991Z,73.83
2023-05-07T10:41:54.650Z,73.96
2023-05-07T10:44:27.195Z,73.73
2023-05-07T10:47:09.960Z,73.85
2023-05-07T10:49:40.559Z,73.83
2023-05-07T10:52:15.651Z,74.02
2023-05-07T10:54:43.531Z,73.85
2023-05-07T10:57:31.802Z,73.94
2023-05-07T10:59:59.443Z,73.91
2023-05-07T11:02:49.841Z,73.73
2023-05-07T11:05:24.928Z,73.82
2023-05-07T11:07:56.094Z,73.94
2023-05-07T11:10:23.842Z,73.80
2023-05-07T11:12:52.569Z,74.03
2023-05-07T11:15:38.937Z,73.91
2023-05-07T11:18:06.417Z,73.89
2023-05-07T11:20:52.200Z,73.89
2023-05-07T11:23:38.356Z,74.93
2023-05-07T11:26:06.829Z,74.19
2023-05-07T11:28:39.380Z,73.72
2023-05-07T11:31:07.387Z,73.39
2023-05-07T11:33:35.190Z,73.27
2023-05-07T11:36:04.737Z,72.95
2023-05-07T11:38:32.437Z,73.10
2023-05-07T11:41:01.588Z,72.97
2023-05-07T11:43:29.590Z,73.13
2023-05-07T11:45:57.179Z,73.26
2023-05-07T11:48:24.671Z,73.34
2023-05-07T11:50:53.569Z,73.25
2023-05-07T11:53:22.560Z,73.16
2023-05-07T11:55:53.908Z,73.27
2023-05-07T11:58:23.325Z,73.19
2023-05-07T12:00:51.347Z,73.46
2023-05-07T12:03:19.441Z,73.49
2023-05-07T12:05:47.137Z,73.54
2023-05-07T12:08:15.899Z,73.94
2023-05-07T12:10:45.043Z,73.68
2023-05-07T12:13:18.519Z,73.61
2023-05-07T12:15:46.320Z,73.56
2023-05-07T12:18:14.364Z,73.89
2023-05-07T12:20:42.133Z,74.28
2023-05-07T12:23:09.621Z,74.84
2023-05-07T12:25:37.333Z,74.85
2023-05-07T12:28:06.865Z,74.84
2023-05-07T12:30:34.679Z,74.41
2023-05-07T12:33:02.241Z,74.61
2023-05-07T12:35:29.933Z,74.52
2023-05-07T12:37:57.688Z,74.45
2023-05-07T12:40:25.184Z,74.63
2023-05-07T12:42:55.438Z,74.24
2023-05-07T12:45:24.239Z,74.39
2023-05-07T12:47:51.742Z,74.37
2023-05-07T12:50:19.357Z,74.41
2023-05-07T12:52:47.691Z,74.49
2023-05-07T12:55:16.318Z,74.53
2023-05-07T12:57:44.656Z,74.14
2023-05-07T13:00:12.530Z,74.16
2023-05-07T13:02:42.478Z,74.29
2023-05-07T13:05:10.477Z,74.29
2023-05-07T13:07:38.527Z,74.09
2023-05-07T13:10:06.496Z,74.32
2023-05-07T13:12:34.214Z,74.32
2023-05-07T13:15:01.629Z,74.29
2023-05-07T13:17:29.091Z,74.25
2023-05-07T13:19:57.906Z,74.05
2023-05-07T13:22:25.371Z,73.82
2023-05-07T13:24:52.809Z,73.79
2023-05-07T13:27:21.014Z,73.93
2023-05-07T13:29:48.505Z,73.57
2023-05-07T13:32:16.110Z,73.56
2023-05-07T13:34:43.671Z,73.45
2023-05-07T13:37:12.848Z,73.43
2023-05-07T13:39:40.405Z,73.68
2023-05-07T13:42:07.875Z,73.44
2023-05-07T13:44:35.328Z,74.14
2023-05-07T13:47:02.881Z,74.08
2023-05-07T13:49:30.638Z,73.82
2023-05-07T13:51:58.291Z,73.99
2023-05-07T13:54:27.115Z,73.79
2023-05-07T13:56:54.526Z,73.70
2023-05-07T13:59:21.965Z,73.51
2023-05-07T14:01:49.414Z,73.21
2023-05-07T14:04:16.901Z,73.05
2023-05-07T14:06:45.488Z,72.97
2023-05-07T14:09:14.305Z,72.58
2023-05-07T14:11:43.381Z,72.46
2023-05-07T14:14:11.693Z,72.62
2023-05-07T14:16:39.223Z,72.45
2023-05-07T14:19:06.740Z,72.55
2023-05-07T14:21:34.244Z,72.45
2023-05-07T14:24:01.951Z,72.38
2023-05-07T14:26:29.422Z,72.13
2023-05-07T14:28:59.307Z,72.31
2023-05-07T14:31:27.134Z,72.08
2023-05-07T14:33:54.642Z,71.85
2023-05-07T14:36:23.772Z,72.01
2023-05-07T14:38:51.285Z,71.91
2023-05-07T14:41:18.824Z,71.97
2023-05-07T14:43:50.798Z,71.81
2023-05-07T14:46:20.449Z,71.98
2023-05-07T14:48:48.154Z,71.96
2023-05-07T14:51:15.768Z,71.77
2023-05-07T14:53:43.816Z,72.08
2023-05-07T14:56:11.304Z,71.87
2023-05-07T14:58:39.028Z,72.47
2023-05-07T15:01:06.517Z,72.56
2023-05-07T15:03:36.283Z,71.39
2023-05-07T15:06:04.009Z,71.56
2023-05-07T15:08:31.442Z,71.99
2023-05-07T15:10:58.899Z,71.94
2023-05-07T15:13:26.409Z,72.07
2023-05-07T15:15:53.950Z,72.23
2023-05-07T15:18:22.869Z,72.31
2023-05-07T15:20:51.883Z,72.39
2023-05-07T15:23:19.368Z,72.45
2023-05-07T15:25:48.940Z,72.38
2023-05-07T15:28:17.742Z,72.46
2023-05-07T15:30:45.317Z,72.39
2023-05-07T15:33:13.045Z,72.47
2023-05-07T15:35:40.538Z,72.52
2023-05-07T15:38:09.703Z,72.56
2023-05-07T15:40:38.646Z,72.59
2023-05-07T15:43:06.083Z,72.48
2023-05-07T15:45:33.615Z,72.46
2023-05-07T15:48:01.253Z,72.41
2023-05-07T15:50:29.597Z,72.47
2023-05-07T15:52:58.291Z,72.32
2023-05-07T15:55:27.280Z,72.40
2023-05-07T15:57:55.621Z,72.49
2023-05-07T16:00:23.197Z,72.32
2023-05-07T16:02:51.037Z,72.39
2023-05-07T16:05:18.547Z,72.39
2023-05-07T16:07:45.979Z,72.38
2023-05-07T16:10:13.440Z,72.36
2023-05-07T16:12:42.353Z,72.38
2023-05-07T16:15:10.181Z,72.36
2023-05-07T16:17:38.041Z,72.25
2023-05-07T16:20:06.408Z,72.27
2023-05-07T16:22:34.026Z,72.39
2023-05-07T16:25:02.516Z,72.40
2023-05-07T16:27:30.034Z,72.30
2023-05-07T16:29:58.841Z,72.27
2023-05-07T16:32:28.365Z,72.33
2023-05-07T16:34:55.851Z,72.51
2023-05-07T16:37:23.282Z,72.40
2023-05-07T16:39:50.714Z,72.50
2023-05-07T16:42:18.133Z,72.59
2023-05-07T16:44:45.561Z,72.45
2023-05-07T16:47:14.326Z,72.58
2023-05-07T16:49:41.797Z,72.80
2023-05-07T16:52:09.347Z,72.38
2023-05-07T16:54:36.763Z,72.50
2023-05-07T16:57:04.243Z,72.69
2023-05-07T16:59:33.347Z,72.71
2023-05-07T17:02:00.784Z,72.81
2023-05-07T17:04:29.891Z,72.90
2023-05-07T17:06:57.731Z,73.25
2023-05-07T17:09:25.362Z,73.22
2023-05-07T17:11:52.801Z,73.04
2023-05-07T17:14:20.328Z,73.04
2023-05-07T17:16:47.754Z,73.20
2023-05-07T17:19:15.256Z,73.79
2023-05-07T17:21:44.096Z,74.45
2023-05-07T17:24:11.559Z,74.46
2023-05-07T17:26:41.379Z,73.96
2023-05-07T17:29:09.341Z,73.55
2023-05-07T17:31:36.783Z,73.55
2023-05-07T17:34:04.280Z,73.31
2023-05-07T17:36:31.704Z,73.24
2023-05-07T17:39:00.534Z,73.14
2023-05-07T17:41:28.006Z,73.24
2023-05-07T17:43:55.488Z,73.21
2023-05-07T17:46:23.156Z,73.14
2023-05-07T17:48:52.011Z,73.13
2023-05-07T17:51:19.502Z,73.13
2023-05-07T17:53:46.981Z,73.07
2023-05-07T17:56:15.802Z,73.14
2023-05-07T18:01:15.432Z,73.20
2023-05-07T18:03:43.203Z,73.15
2023-05-07T18:06:10.848Z,73.17
2023-05-07T18:08:38.312Z,73.21
2023-05-07T18:11:06.262Z,73.25
2023-05-07T18:13:35.034Z,73.28
2023-05-07T18:16:02.485Z,73.27
2023-05-07T18:18:30.918Z,73.30
2023-05-07T18:20:58.578Z,73.32
2023-05-07T18:23:26.204Z,73.28
2023-05-07T18:25:53.862Z,73.27
2023-05-07T18:28:21.284Z,73.23
2023-05-07T18:30:50.113Z,73.30
2023-05-07T18:33:17.593Z,73.29
2023-05-07T18:35:45.102Z,73.40
2023-05-07T18:38:12.530Z,73.16
2023-05-07T18:40:43.797Z,73.15
2023-05-07T18:43:11.375Z,73.32
2023-05-07T18:45:39.056Z,73.32
2023-05-07T18:48:08.173Z,73.29
2023-05-07T18:50:35.779Z,73.17
2023-05-07T18:53:03.201Z,73.41
2023-05-07T18:55:31.471Z,73.37
2023-05-07T18:57:58.949Z,73.25
2023-05-07T19:00:26.429Z,73.10
2023-05-07T19:02:53.883Z,73.23
2023-05-07T19:05:22.691Z,73.12
2023-05-07T19:07:51.090Z,73.21
2023-05-07T19:10:18.952Z,73.21
2023-05-07T19:12:46.495Z,73.11
2023-05-07T19:15:14.048Z,73.24
2023-05-07T19:17:41.539Z,73.48
2023-05-07T19:20:12.156Z,73.77
2023-05-07T19:22:40.962Z,73.83
2023-05-07T19:25:09.783Z,73.85
2023-05-07T19:27:37.494Z,73.79
2023-05-07T19:30:05.664Z,73.79
2023-05-07T19:32:33.338Z,73.87
2023-05-07T19:35:00.814Z,73.90
2023-05-07T19:37:28.245Z,73.99
2023-05-07T19:39:57.062Z,73.93
2023-05-07T19:42:24.545Z,74.00
2023-05-07T19:44:51.991Z,74.07
2023-05-07T19:47:19.698Z,74.17
2023-05-07T19:49:47.166Z,74.28
2023-05-07T19:52:14.617Z,74.16
2023-05-07T19:54:42.069Z,74.09
2023-05-07T19:57:10.927Z,74.19
2023-05-07T19:59:38.418Z,74.19
2023-05-07T20:02:05.942Z,74.18
2023-05-07T20:04:37.732Z,74.37
2023-05-07T20:07:05.381Z,74.19
2023-05-07T20:09:32.918Z,74.31
2023-05-07T20:12:00.653Z,74.29
2023-05-07T20:14:29.462Z,74.30
2023-05-07T20:16:56.902Z,74.13
2023-05-07T20:19:25.110Z,74.38
2023-05-07T20:21:52.877Z,74.21
2023-05-07T20:24:20.394Z,74.38
2023-05-07T20:26:47.860Z,74.34
2023-05-07T20:29:15.281Z,74.24
2023-05-07T20:31:44.122Z,74.26
2023-05-07T20:34:11.605Z,74.31
2023-05-07T20:36:39.172Z,74.27
2023-05-07T20:39:06.616Z,74.06
2023-05-07T20:41:34.098Z,74.31
2023-05-07T20:44:02.095Z,74.57
2023-05-07T20:46:30.259Z,74.39
2023-05-07T20:48:59.185Z,74.33
2023-05-07T20:51:27.160Z,74.38
2023-05-07T20:53:54.593Z,74.45
2023-05-07T20:56:22.354Z,74.47
2023-05-07T20:58:49.820Z,74.56
2023-05-07T21:01:17.281Z,74.35
2023-05-07T21:03:44.800Z,74.56
2023-05-07T21:06:13.580Z,74.49
2023-05-07T21:08:41.040Z,74.79
2023-05-07T21:11:10.004Z,74.69
2023-05-07T21:13:37.423Z,74.73
2023-05-07T21:16:05.281Z,74.73
2023-05-07T21:18:32.997Z,74.78
2023-05-07T21:21:00.755Z,74.84
2023-05-07T21:23:29.551Z,74.73
2023-05-07T21:25:57.038Z,74.85
2023-05-07T21:28:24.478Z,74.80
2023-05-07T21:30:53.032Z,74.78
2023-05-07T21:33:20.584Z,74.94
2023-05-07T21:35:48.041Z,75.04
2023-05-07T21:38:15.446Z,75.05
2023-05-07T21:40:44.245Z,75.08
2023-05-07T21:43:11.701Z,74.97
2023-05-07T21:45:39.998Z,75.27
2023-05-07T21:48:07.732Z,75.19
2023-05-07T21:50:35.817Z,75.53
2023-05-07T21:53:03.225Z,75.27
2023-05-07T21:55:30.713Z,75.03
2023-05-07T21:58:05.458Z,74.79
2023-05-07T22:00:34.038Z,74.66
2023-05-07T22:03:01.755Z,74.77
2023-05-07T22:05:29.331Z,74.63
2023-05-07T22:07:56.729Z,74.33
2023-05-07T22:10:24.151Z,74.26
2023-05-07T22:12:51.696Z,73.98
2023-05-07T22:15:20.524Z,73.85
2023-05-07T22:17:47.985Z,73.76
2023-05-07T22:20:15.740Z,73.65
2023-05-07T22:22:47.497Z,73.60
2023-05-07T22:25:15.894Z,73.92
2023-05-07T22:27:43.549Z,73.24
2023-05-07T22:30:12.079Z,73.40
2023-05-07T22:32:42.642Z,73.27
2023-05-07T22:35:10.877Z,73.36
2023-05-07T22:37:38.325Z,73.48
2023-05-07T22:40:06.467Z,74.00
2023-05-07T22:42:33.881Z,73.91
2023-05-07T22:45:01.315Z,74.22
2023-05-07T22:47:29.935Z,74.70
2023-05-07T22:49:58.770Z,75.32
2023-05-07T22:52:26.268Z,75.77
2023-05-07T22:54:53.751Z,75.93
2023-05-07T22:57:21.153Z,76.17
2023-05-07T22:59:48.560Z,76.34
2023-05-07T23:02:16.077Z,76.23
2023-05-07T23:04:43.512Z,75.92
2023-05-07T23:07:12.336Z,75.64
2023-05-07T23:09:39.822Z,75.40
2023-05-07T23:12:07.357Z,75.23
2023-05-07T23:14:34.855Z,75.14
2023-05-07T23:17:02.665Z,74.86
2023-05-07T23:19:30.144Z,74.81
2023-05-07T23:21:57.614Z,74.68
2023-05-07T23:24:26.395Z,74.75
2023-05-07T23:26:53.929Z,75.07
2023-05-07T23:29:21.460Z,75.18
2023-05-07T23:31:48.949Z,74.99
2023-05-07T23:34:18.435Z,75.04
2023-05-07T23:36:45.845Z,75.35
2023-05-07T23:39:13.293Z,75.65
2023-05-07T23:41:42.060Z,75.58
2023-05-07T23:44:09.602Z,75.47
2023-05-07T23:46:37.086Z,75.37
2023-05-07T23:49:04.519Z,75.44
2023-05-07T23:51:32.161Z,75.58
2023-05-07T23:54:00.061Z,75.24
2023-05-07T23:56:27.553Z,74.99
2023-05-07T23:58:56.332Z,74.85
